sensor_id;sensor_type;location;lat;lon;timestamp;pressure;altitude;pressure_sealevel;temperature;humidity
17362;BME280;8798;51.938;4.348;2023-06-22T00:00:31;100903.63;;;20.57;61.52
17362;BME280;8798;51.938;4.348;2023-06-22T00:02:58;100913.06;;;20.54;61.46
17362;BME280;8798;51.938;4.348;2023-06-22T00:05:26;100919.81;;;20.52;61.83
17362;BME280;8798;51.938;4.348;2023-06-22T00:07:56;100919.41;;;20.48;61.67
17362;BME280;8798;51.938;4.348;2023-06-22T00:10:24;100927.16;;;20.45;62.00
17362;BME280;8798;51.938;4.348;2023-06-22T00:12:52;100945.44;;;20.44;61.95
17362;BME280;8798;51.938;4.348;2023-06-22T00:15:20;100947.53;;;20.42;62.29
17362;BME280;8798;51.938;4.348;2023-06-22T00:17:49;100959.53;;;20.41;62.36
17362;BME280;8798;51.938;4.348;2023-06-22T00:20:17;100967.09;;;20.39;62.17
17362;BME280;8798;51.938;4.348;2023-06-22T00:22:45;100974.88;;;20.35;62.47
17362;BME280;8798;51.938;4.348;2023-06-22T00:25:15;100997.53;;;20.36;62.41
17362;BME280;8798;51.938;4.348;2023-06-22T00:27:43;100991.66;;;20.32;62.56
17362;BME280;8798;51.938;4.348;2023-06-22T00:30:12;100986.84;;;20.28;62.71
17362;BME280;8798;51.938;4.348;2023-06-22T00:32:40;100983.91;;;20.23;62.91
17362;BME280;8798;51.938;4.348;2023-06-22T00:35:08;100987.06;;;20.19;63.17
17362;BME280;8798;51.938;4.348;2023-06-22T00:37:36;100993.78;;;20.17;63.10
17362;BME280;8798;51.938;4.348;2023-06-22T00:40:06;100979.09;;;20.11;63.11
17362;BME280;8798;51.938;4.348;2023-06-22T00:42:35;100951.63;;;20.00;63.18
17362;BME280;8798;51.938;4.348;2023-06-22T00:45:05;100933.59;;;19.92;63.34
17362;BME280;8798;51.938;4.348;2023-06-22T00:47:34;100936.13;;;19.87;63.42
17362;BME280;8798;51.938;4.348;2023-06-22T00:50:02;100915.34;;;19.79;63.47
17362;BME280;8798;51.938;4.348;2023-06-22T00:52:31;100911.38;;;19.75;63.59
17362;BME280;8798;51.938;4.348;2023-06-22T00:55:02;100913.06;;;19.69;63.88
17362;BME280;8798;51.938;4.348;2023-06-22T00:57:30;100917.88;;;19.67;64.00
17362;BME280;8798;51.938;4.348;2023-06-22T00:59:59;100917.44;;;19.64;64.18
17362;BME280;8798;51.938;4.348;2023-06-22T01:02:27;100910.09;;;19.58;64.09
17362;BME280;8798;51.938;4.348;2023-06-22T01:04:56;100880.31;;;19.49;64.18
17362;BME280;8798;51.938;4.348;2023-06-22T01:07:30;100880.31;;;19.43;64.52
17362;BME280;8798;51.938;4.348;2023-06-22T01:10:04;100862.28;;;19.35;64.41
17362;BME280;8798;51.938;4.348;2023-06-22T01:12:40;100865.66;;;19.30;64.42
17362;BME280;8798;51.938;4.348;2023-06-22T01:15:17;100879.25;;;19.30;64.54
17362;BME280;8798;51.938;4.348;2023-06-22T01:17:48;100899.16;;;19.31;64.98
17362;BME280;8798;51.938;4.348;2023-06-22T01:20:19;100931.66;;;19.32;65.04
17362;BME280;8798;51.938;4.348;2023-06-22T01:22:59;100946.13;;;19.33;64.85
17362;BME280;8798;51.938;4.348;2023-06-22T01:25:35;100947.38;;;19.30;65.14
17362;BME280;8798;51.938;4.348;2023-06-22T01:28:10;100964.56;;;19.31;65.30
17362;BME280;8798;51.938;4.348;2023-06-22T01:30:49;100982.78;;;19.30;64.92
17362;BME280;8798;51.938;4.348;2023-06-22T01:33:34;101009.00;;;19.31;65.47
17362;BME280;8798;51.938;4.348;2023-06-22T01:36:03;101019.91;;;19.31;65.71
17362;BME280;8798;51.938;4.348;2023-06-22T01:38:32;101043.34;;;19.32;65.77
17362;BME280;8798;51.938;4.348;2023-06-22T01:41:02;101043.56;;;19.31;65.71
17362;BME280;8798;51.938;4.348;2023-06-22T01:43:32;101056.34;;;19.30;65.78
17362;BME280;8798;51.938;4.348;2023-06-22T01:46:04;101065.56;;;19.29;65.82
17362;BME280;8798;51.938;4.348;2023-06-22T01:48:32;101075.81;;;19.27;66.20
17362;BME280;8798;51.938;4.348;2023-06-22T01:51:00;101080.84;;;19.24;66.21
17362;BME280;8798;51.938;4.348;2023-06-22T01:53:28;101078.31;;;19.22;66.30
17362;BME280;8798;51.938;4.348;2023-06-22T01:55:56;101091.09;;;19.22;66.38
17362;BME280;8798;51.938;4.348;2023-06-22T01:58:26;101106.59;;;19.21;66.38
17362;BME280;8798;51.938;4.348;2023-06-22T02:00:59;101121.91;;;19.22;66.36
17362;BME280;8798;51.938;4.348;2023-06-22T02:03:34;101148.09;;;19.23;66.54
17362;BME280;8798;51.938;4.348;2023-06-22T02:06:07;101140.13;;;19.22;66.68
17362;BME280;8798;51.938;4.348;2023-06-22T02:08:39;101145.13;;;19.18;66.55
17362;BME280;8798;51.938;4.348;2023-06-22T02:11:09;101149.94;;;19.16;66.85
17362;BME280;8798;51.938;4.348;2023-06-22T02:13:37;101158.97;;;19.17;66.91
17362;BME280;8798;51.938;4.348;2023-06-22T02:16:11;101164.59;;;19.15;66.86
17362;BME280;8798;51.938;4.348;2023-06-22T02:18:47;101176.56;;;19.14;67.02
17362;BME280;8798;51.938;4.348;2023-06-22T02:21:17;101177.81;;;19.11;67.13
17362;BME280;8798;51.938;4.348;2023-06-22T02:23:45;101184.28;;;19.10;66.96
17362;BME280;8798;51.938;4.348;2023-06-22T02:26:16;101181.97;;;19.07;67.09
17362;BME280;8798;51.938;4.348;2023-06-22T02:28:45;101188.41;;;19.06;67.02
17362;BME280;8798;51.938;4.348;2023-06-22T02:31:14;101186.94;;;19.04;67.26
17362;BME280;8798;51.938;4.348;2023-06-22T02:33:42;101199.06;;;19.01;67.33
17362;BME280;8798;51.938;4.348;2023-06-22T02:36:14;101193.84;;;19.00;67.50
17362;BME280;8798;51.938;4.348;2023-06-22T02:38:42;101196.75;;;18.98;67.57
17362;BME280;8798;51.938;4.348;2023-06-22T02:41:14;101209.72;;;18.96;67.86
17362;BME280;8798;51.938;4.348;2023-06-22T02:43:44;101217.06;;;18.96;67.67
17362;BME280;8798;51.938;4.348;2023-06-22T02:46:13;101225.22;;;18.96;67.94
17362;BME280;8798;51.938;4.348;2023-06-22T02:48:41;101225.44;;;18.94;67.85
17362;BME280;8798;51.938;4.348;2023-06-22T02:51:14;101228.34;;;18.93;67.82
17362;BME280;8798;51.938;4.348;2023-06-22T02:53:42;101229.59;;;18.90;68.03
17362;BME280;8798;51.938;4.348;2023-06-22T02:56:11;101237.09;;;18.88;68.02
17362;BME280;8798;51.938;4.348;2023-06-22T02:58:39;101230.19;;;18.85;68.13
17362;BME280;8798;51.938;4.348;2023-06-22T03:01:07;101219.03;;;18.80;67.97
17362;BME280;8798;51.938;4.348;2023-06-22T03:03:36;101218.56;;;18.77;68.50
17362;BME280;8798;51.938;4.348;2023-06-22T03:06:04;101208.88;;;18.74;68.16
17362;BME280;8798;51.938;4.348;2023-06-22T03:08:34;101228.16;;;18.73;68.46
17362;BME280;8798;51.938;4.348;2023-06-22T03:11:01;101230.88;;;18.73;68.46
17362;BME280;8798;51.938;4.348;2023-06-22T03:13:29;101224.97;;;18.69;68.43
17362;BME280;8798;51.938;4.348;2023-06-22T03:15:57;101223.69;;;18.65;68.46
17362;BME280;8798;51.938;4.348;2023-06-22T03:18:25;101220.31;;;18.63;68.76
17362;BME280;8798;51.938;4.348;2023-06-22T03:20:53;101228.66;;;18.61;68.79
17362;BME280;8798;51.938;4.348;2023-06-22T03:23:21;101224.47;;;18.59;68.79
17362;BME280;8798;51.938;4.348;2023-06-22T03:25:51;101229.91;;;18.59;68.92
17362;BME280;8798;51.938;4.348;2023-06-22T03:28:20;101234.69;;;18.57;69.01
17362;BME280;8798;51.938;4.348;2023-06-22T03:30:48;101238.47;;;18.56;68.76
17362;BME280;8798;51.938;4.348;2023-06-22T03:33:16;101242.22;;;18.55;68.75
17362;BME280;8798;51.938;4.348;2023-06-22T03:35:44;101255.84;;;18.55;69.19
17362;BME280;8798;51.938;4.348;2023-06-22T03:38:12;101269.44;;;18.55;69.00
17362;BME280;8798;51.938;4.348;2023-06-22T03:40:40;101272.16;;;18.55;69.29
17362;BME280;8798;51.938;4.348;2023-06-22T03:43:09;101289.13;;;18.57;68.83
17362;BME280;8798;51.938;4.348;2023-06-22T03:45:37;101304.44;;;18.58;69.42
17362;BME280;8798;51.938;4.348;2023-06-22T03:48:06;101318.88;;;18.58;69.43
17362;BME280;8798;51.938;4.348;2023-06-22T03:50:35;101337.75;;;18.60;69.48
17362;BME280;8798;51.938;4.348;2023-06-22T03:53:03;101347.56;;;18.61;69.43
17362;BME280;8798;51.938;4.348;2023-06-22T03:55:30;101353.69;;;18.63;69.22
17362;BME280;8798;51.938;4.348;2023-06-22T03:57:58;101366.44;;;18.62;69.59
17362;BME280;8798;51.938;4.348;2023-06-22T04:00:33;101373.75;;;18.62;69.52
17362;BME280;8798;51.938;4.348;2023-06-22T04:03:02;101380.06;;;18.62;69.29
17362;BME280;8798;51.938;4.348;2023-06-22T04:05:30;101389.91;;;18.63;69.79
17362;BME280;8798;51.938;4.348;2023-06-22T04:07:58;101404.34;;;18.64;69.99
17362;BME280;8798;51.938;4.348;2023-06-22T04:10:26;101420.50;;;18.65;69.66
17362;BME280;8798;51.938;4.348;2023-06-22T04:12:54;101431.19;;;18.67;69.68
17362;BME280;8798;51.938;4.348;2023-06-22T04:15:23;101446.31;;;18.69;69.77
17362;BME280;8798;51.938;4.348;2023-06-22T04:17:54;101470.22;;;18.74;69.95
17362;BME280;8798;51.938;4.348;2023-06-22T04:20:22;101476.53;;;18.75;70.03
17362;BME280;8798;51.938;4.348;2023-06-22T04:22:55;101488.41;;;18.74;70.18
17362;BME280;8798;51.938;4.348;2023-06-22T04:25:23;101491.97;;;18.74;70.13
17362;BME280;8798;51.938;4.348;2023-06-22T04:27:51;101493.88;;;18.74;70.66
17362;BME280;8798;51.938;4.348;2023-06-22T04:30:19;101494.06;;;18.72;70.49
17362;BME280;8798;51.938;4.348;2023-06-22T04:32:47;101497.81;;;18.71;70.72
17362;BME280;8798;51.938;4.348;2023-06-22T04:35:26;101502.25;;;18.72;70.64
17362;BME280;8798;51.938;4.348;2023-06-22T04:37:58;101527.38;;;18.74;70.64
17362;BME280;8798;51.938;4.348;2023-06-22T04:40:26;101551.34;;;18.79;70.85
17362;BME280;8798;51.938;4.348;2023-06-22T04:42:54;101565.63;;;18.81;70.80
17362;BME280;8798;51.938;4.348;2023-06-22T04:45:22;101601.78;;;18.89;70.84
17362;BME280;8798;51.938;4.348;2023-06-22T04:47:50;101650.50;;;18.99;70.51
17362;BME280;8798;51.938;4.348;2023-06-22T04:50:19;101696.53;;;19.09;70.77
17362;BME280;8798;51.938;4.348;2023-06-22T04:52:50;101730.81;;;19.18;70.98
17362;BME280;8798;51.938;4.348;2023-06-22T04:55:19;101782.13;;;19.29;70.93
17362;BME280;8798;51.938;4.348;2023-06-22T04:57:48;101837.19;;;19.40;71.20
17362;BME280;8798;51.938;4.348;2023-06-22T05:00:17;101870.84;;;19.47;71.07
17362;BME280;8798;51.938;4.348;2023-06-22T05:02:46;101899.91;;;19.54;71.06
17362;BME280;8798;51.938;4.348;2023-06-22T05:05:15;101932.75;;;19.61;70.87
17362;BME280;8798;51.938;4.348;2023-06-22T05:07:45;101959.97;;;19.69;71.12
17362;BME280;8798;51.938;4.348;2023-06-22T05:10:16;101983.09;;;19.73;71.00
17362;BME280;8798;51.938;4.348;2023-06-22T05:12:44;101983.75;;;19.75;71.07
17362;BME280;8798;51.938;4.348;2023-06-22T05:15:12;102003.16;;;19.81;71.14
17362;BME280;8798;51.938;4.348;2023-06-22T05:17:40;102016.22;;;19.85;71.23
17362;BME280;8798;51.938;4.348;2023-06-22T05:20:11;102038.53;;;19.89;71.23
17362;BME280;8798;51.938;4.348;2023-06-22T05:22:42;102038.16;;;19.92;71.77
17362;BME280;8798;51.938;4.348;2023-06-22T05:25:11;102060.28;;;19.97;71.38
17362;BME280;8798;51.938;4.348;2023-06-22T05:27:40;102082.38;;;20.02;71.16
17362;BME280;8798;51.938;4.348;2023-06-22T05:30:10;102094.66;;;20.06;71.52
17362;BME280;8798;51.938;4.348;2023-06-22T05:32:38;102087.28;;;20.07;71.20
17362;BME280;8798;51.938;4.348;2023-06-22T05:35:07;102073.00;;;20.05;71.34
17362;BME280;8798;51.938;4.348;2023-06-22T05:37:35;102062.28;;;20.03;71.24
17362;BME280;8798;51.938;4.348;2023-06-22T05:40:05;102057.47;;;20.05;71.29
17362;BME280;8798;51.938;4.348;2023-06-22T05:42:33;102065.47;;;20.07;71.49
17362;BME280;8798;51.938;4.348;2023-06-22T05:45:04;102071.78;;;20.07;71.49
17362;BME280;8798;51.938;4.348;2023-06-22T05:47:32;102060.00;;;20.07;71.30
17362;BME280;8798;51.938;4.348;2023-06-22T05:50:00;102060.00;;;20.07;71.51
17362;BME280;8798;51.938;4.348;2023-06-22T05:52:27;102058.13;;;20.07;71.28
17362;BME280;8798;51.938;4.348;2023-06-22T05:54:55;102072.28;;;20.11;71.38
17362;BME280;8798;51.938;4.348;2023-06-22T05:57:23;102074.63;;;20.14;71.41
17362;BME280;8798;51.938;4.348;2023-06-22T05:59:51;102089.94;;;20.15;71.67
17362;BME280;8798;51.938;4.348;2023-06-22T06:02:21;102077.34;;;20.14;71.70
17362;BME280;8798;51.938;4.348;2023-06-22T06:04:49;102070.00;;;20.14;71.75
17362;BME280;8798;51.938;4.348;2023-06-22T06:07:21;102075.97;;;20.18;71.61
17362;BME280;8798;51.938;4.348;2023-06-22T06:09:49;102088.38;;;20.21;71.76
17362;BME280;8798;51.938;4.348;2023-06-22T06:12:17;102104.38;;;20.24;71.77
17362;BME280;8798;51.938;4.348;2023-06-22T06:14:45;102116.63;;;20.28;71.86
17362;BME280;8798;51.938;4.348;2023-06-22T06:17:13;102118.97;;;20.31;71.59
17362;BME280;8798;51.938;4.348;2023-06-22T06:19:43;102140.28;;;20.35;71.79
17362;BME280;8798;51.938;4.348;2023-06-22T06:22:11;102144.50;;;20.38;71.76
17362;BME280;8798;51.938;4.348;2023-06-22T06:24:39;102151.66;;;20.39;71.65
17362;BME280;8798;51.938;4.348;2023-06-22T06:27:06;102159.47;;;20.42;71.87
17362;BME280;8798;51.938;4.348;2023-06-22T06:29:34;102161.84;;;20.45;71.92
17362;BME280;8798;51.938;4.348;2023-06-22T06:32:03;102167.94;;;20.47;71.96
17362;BME280;8798;51.938;4.348;2023-06-22T06:34:31;102171.56;;;20.48;71.68
17362;BME280;8798;51.938;4.348;2023-06-22T06:37:00;102177.47;;;20.51;71.92
17362;BME280;8798;51.938;4.348;2023-06-22T06:39:28;102177.09;;;20.54;71.71
17362;BME280;8798;51.938;4.348;2023-06-22T06:41:56;102183.28;;;20.56;71.75
17362;BME280;8798;51.938;4.348;2023-06-22T06:44:24;102199.09;;;20.61;71.82
17362;BME280;8798;51.938;4.348;2023-06-22T06:46:52;102207.59;;;20.66;71.83
17362;BME280;8798;51.938;4.348;2023-06-22T06:49:21;102235.19;;;20.71;72.01
17362;BME280;8798;51.938;4.348;2023-06-22T06:51:48;102244.72;;;20.75;71.77
17362;BME280;8798;51.938;4.348;2023-06-22T06:54:19;102265.81;;;20.81;71.91
17362;BME280;8798;51.938;4.348;2023-06-22T06:56:47;102299.19;;;20.92;71.72
17362;BME280;8798;51.938;4.348;2023-06-22T06:59:16;102332.59;;;21.02;71.80
17362;BME280;8798;51.938;4.348;2023-06-22T07:01:44;102376.72;;;21.14;71.99
17362;BME280;8798;51.938;4.348;2023-06-22T07:04:15;102426.16;;;21.27;71.75
17362;BME280;8798;51.938;4.348;2023-06-22T07:06:43;102459.56;;;21.37;71.81
17362;BME280;8798;51.938;4.348;2023-06-22T07:09:11;102499.16;;;21.50;71.80
17362;BME280;8798;51.938;4.348;2023-06-22T07:11:40;102525.59;;;21.57;71.88
17362;BME280;8798;51.938;4.348;2023-06-22T07:14:08;102539.41;;;21.64;71.98
17362;BME280;8798;51.938;4.348;2023-06-22T07:16:36;102563.94;;;21.72;71.72
17362;BME280;8798;51.938;4.348;2023-06-22T07:19:04;102584.06;;;21.79;71.39
17362;BME280;8798;51.938;4.348;2023-06-22T07:21:34;102585.22;;;21.85;71.55
17362;BME280;8798;51.938;4.348;2023-06-22T07:24:02;102607.03;;;21.93;71.39
17362;BME280;8798;51.938;4.348;2023-06-22T07:26:32;102636.03;;;22.02;71.22
17362;BME280;8798;51.938;4.348;2023-06-22T07:29:01;102658.91;;;22.09;71.43
17362;BME280;8798;51.938;4.348;2023-06-22T07:31:29;102664.50;;;22.16;71.36
17362;BME280;8798;51.938;4.348;2023-06-22T07:33:57;102678.31;;;22.23;71.19
17362;BME280;8798;51.938;4.348;2023-06-22T07:36:25;102710.78;;;22.34;70.67
17362;BME280;8798;51.938;4.348;2023-06-22T07:38:53;102750.38;;;22.46;70.67
17362;BME280;8798;51.938;4.348;2023-06-22T07:41:21;102759.56;;;22.53;70.59
17362;BME280;8798;51.938;4.348;2023-06-22T07:43:49;102793.72;;;22.66;70.69
17362;BME280;8798;51.938;4.348;2023-06-22T07:46:19;102808.19;;;22.74;70.55
17362;BME280;8798;51.938;4.348;2023-06-22T07:48:47;102832.59;;;22.84;70.44
17362;BME280;8798;51.938;4.348;2023-06-22T07:51:15;102852.59;;;22.93;69.75
17362;BME280;8798;51.938;4.348;2023-06-22T07:53:44;102875.16;;;23.03;69.53
17362;BME280;8798;51.938;4.348;2023-06-22T07:56:12;102916.34;;;23.18;69.67
17362;BME280;8798;51.938;4.348;2023-06-22T07:58:45;102935.94;;;23.30;69.47
17362;BME280;8798;51.938;4.348;2023-06-22T08:01:13;102966.72;;;23.40;69.07
17362;BME280;8798;51.938;4.348;2023-06-22T08:03:43;102993.69;;;23.51;68.61
17362;BME280;8798;51.938;4.348;2023-06-22T08:06:11;103014.38;;;23.62;68.29
17362;BME280;8798;51.938;4.348;2023-06-22T08:08:39;103041.41;;;23.73;68.25
17362;BME280;8798;51.938;4.348;2023-06-22T08:11:07;103054.88;;;23.83;68.00
17362;BME280;8798;51.938;4.348;2023-06-22T08:13:35;103051.41;;;23.89;67.89
17362;BME280;8798;51.938;4.348;2023-06-22T08:16:03;103033.69;;;23.92;67.25
17362;BME280;8798;51.938;4.348;2023-06-22T08:18:31;103032.94;;;23.98;66.26
17362;BME280;8798;51.938;4.348;2023-06-22T08:21:00;103060.78;;;24.10;66.41
17362;BME280;8798;51.938;4.348;2023-06-22T08:23:31;103110.09;;;24.26;66.20
17362;BME280;8798;51.938;4.348;2023-06-22T08:25:59;103130.56;;;24.38;66.08
17362;BME280;8798;51.938;4.348;2023-06-22T08:28:27;103116.06;;;24.44;65.70
17362;BME280;8798;51.938;4.348;2023-06-22T08:30:55;103117.44;;;24.49;65.51
17362;BME280;8798;51.938;4.348;2023-06-22T08:33:23;103111.16;;;24.55;64.71
17362;BME280;8798;51.938;4.348;2023-06-22T08:35:55;103115.06;;;24.60;64.64
17362;BME280;8798;51.938;4.348;2023-06-22T08:38:24;103134.69;;;24.72;64.33
17362;BME280;8798;51.938;4.348;2023-06-22T08:40:52;103147.28;;;24.81;63.92
17362;BME280;8798;51.938;4.348;2023-06-22T08:43:20;103141.03;;;24.87;63.47
17362;BME280;8798;51.938;4.348;2023-06-22T08:45:48;103145.78;;;24.94;63.71
17362;BME280;8798;51.938;4.348;2023-06-22T08:48:16;103158.19;;;25.04;63.35
17362;BME280;8798;51.938;4.348;2023-06-22T08:50:44;103191.56;;;25.16;62.97
17362;BME280;8798;51.938;4.348;2023-06-22T08:53:12;103195.97;;;25.25;62.53
17362;BME280;8798;51.938;4.348;2023-06-22T08:55:41;103198.59;;;25.34;62.11
17362;BME280;8798;51.938;4.348;2023-06-22T08:58:09;103188.69;;;25.39;61.88
17362;BME280;8798;51.938;4.348;2023-06-22T09:00:37;103236.13;;;25.56;61.83
17362;BME280;8798;51.938;4.348;2023-06-22T09:03:04;103269.38;;;25.69;61.11
17362;BME280;8798;51.938;4.348;2023-06-22T09:05:33;103283.47;;;25.81;60.84
17362;BME280;8798;51.938;4.348;2023-06-22T09:08:01;103284.66;;;25.87;60.40
17362;BME280;8798;51.938;4.348;2023-06-22T09:10:29;103278.16;;;25.94;60.26
17362;BME280;8798;51.938;4.348;2023-06-22T09:12:59;103293.31;;;26.05;60.00
17362;BME280;8798;51.938;4.348;2023-06-22T09:15:27;103299.75;;;26.12;59.27
17362;BME280;8798;51.938;4.348;2023-06-22T09:17:55;103310.28;;;26.24;59.23
17362;BME280;8798;51.938;4.348;2023-06-22T09:20:24;103320.09;;;26.33;58.76
17362;BME280;8798;51.938;4.348;2023-06-22T09:22:52;103299.38;;;26.37;58.32
17362;BME280;8798;51.938;4.348;2023-06-22T09:25:19;103322.13;;;26.46;58.53
17362;BME280;8798;51.938;4.348;2023-06-22T09:27:48;103306.72;;;26.51;57.81
17362;BME280;8798;51.938;4.348;2023-06-22T09:30:17;103264.69;;;26.49;57.29
17362;BME280;8798;51.938;4.348;2023-06-22T09:32:45;103243.31;;;26.51;57.52
17362;BME280;8798;51.938;4.348;2023-06-22T09:35:13;103242.53;;;26.57;56.97
17362;BME280;8798;51.938;4.348;2023-06-22T09:37:41;103244.50;;;26.64;56.60
17362;BME280;8798;51.938;4.348;2023-06-22T09:40:09;103227.53;;;26.67;57.04
17362;BME280;8798;51.938;4.348;2023-06-22T09:42:39;103237.38;;;26.76;56.48
17362;BME280;8798;51.938;4.348;2023-06-22T09:45:08;103247.19;;;26.85;56.64
17362;BME280;8798;51.938;4.348;2023-06-22T09:47:37;103251.50;;;26.94;55.66
17362;BME280;8798;51.938;4.348;2023-06-22T09:50:06;103275.78;;;27.06;55.71
17362;BME280;8798;51.938;4.348;2023-06-22T09:52:34;103307.09;;;27.19;55.55
17362;BME280;8798;51.938;4.348;2023-06-22T09:55:05;103319.03;;;27.27;55.87
17362;BME280;8798;51.938;4.348;2023-06-22T09:57:33;103326.09;;;27.36;55.20
17362;BME280;8798;51.938;4.348;2023-06-22T10:00:01;103342.31;;;27.45;55.41
17362;BME280;8798;51.938;4.348;2023-06-22T10:02:34;103329.59;;;27.51;54.96
17362;BME280;8798;51.938;4.348;2023-06-22T10:05:04;103319.84;;;27.55;55.01
17362;BME280;8798;51.938;4.348;2023-06-22T10:07:32;103295.63;;;27.57;54.44
17362;BME280;8798;51.938;4.348;2023-06-22T10:10:00;103233.13;;;27.50;55.09
17362;BME280;8798;51.938;4.348;2023-06-22T10:12:29;103214.44;;;27.52;54.87
17362;BME280;8798;51.938;4.348;2023-06-22T10:14:57;103226.34;;;27.59;54.37
17362;BME280;8798;51.938;4.348;2023-06-22T10:17:25;103192.38;;;27.58;53.98
17362;BME280;8798;51.938;4.348;2023-06-22T10:19:53;103176.00;;;27.63;54.55
17362;BME280;8798;51.938;4.348;2023-06-22T10:22:23;103194.09;;;27.73;53.76
17362;BME280;8798;51.938;4.348;2023-06-22T10:24:51;103192.41;;;27.78;54.06
17362;BME280;8798;51.938;4.348;2023-06-22T10:27:19;103150.75;;;27.73;53.58
17362;BME280;8798;51.938;4.348;2023-06-22T10:29:47;103064.88;;;27.61;53.43
17362;BME280;8798;51.938;4.348;2023-06-22T10:32:15;102995.41;;;27.51;53.66
17362;BME280;8798;51.938;4.348;2023-06-22T10:34:43;102963.53;;;27.49;53.87
17362;BME280;8798;51.938;4.348;2023-06-22T10:37:10;102903.03;;;27.40;53.02
17362;BME280;8798;51.938;4.348;2023-06-22T10:39:40;102866.47;;;27.38;53.30
17362;BME280;8798;51.938;4.348;2023-06-22T10:42:08;102844.41;;;27.38;52.97
17362;BME280;8798;51.938;4.348;2023-06-22T10:44:35;102808.94;;;27.35;52.71
17362;BME280;8798;51.938;4.348;2023-06-22T10:47:04;102808.28;;;27.40;52.84
17362;BME280;8798;51.938;4.348;2023-06-22T10:49:32;102796.38;;;27.39;53.05
17362;BME280;8798;51.938;4.348;2023-06-22T10:52:00;102777.06;;;27.39;52.73
17362;BME280;8798;51.938;4.348;2023-06-22T10:54:28;102739.03;;;27.35;52.98
17362;BME280;8798;51.938;4.348;2023-06-22T10:56:57;102693.22;;;27.27;52.87
17362;BME280;8798;51.938;4.348;2023-06-22T10:59:25;102662.44;;;27.23;52.82
17362;BME280;8798;51.938;4.348;2023-06-22T11:01:53;102638.66;;;27.22;52.22
17362;BME280;8798;51.938;4.348;2023-06-22T11:04:21;102632.94;;;27.24;52.55
17362;BME280;8798;51.938;4.348;2023-06-22T11:06:49;102642.22;;;27.30;52.73
17362;BME280;8798;51.938;4.348;2023-06-22T11:09:17;102656.00;;;27.36;51.89
17362;BME280;8798;51.938;4.348;2023-06-22T11:11:53;102654.53;;;27.40;52.63
17362;BME280;8798;51.938;4.348;2023-06-22T11:14:22;102649.63;;;27.42;52.16
17362;BME280;8798;51.938;4.348;2023-06-22T11:16:50;102671.47;;;27.51;52.48
17362;BME280;8798;51.938;4.348;2023-06-22T11:19:18;102703.88;;;27.62;51.73
17362;BME280;8798;51.938;4.348;2023-06-22T11:21:46;102699.00;;;27.64;52.29
17362;BME280;8798;51.938;4.348;2023-06-22T11:24:14;102686.88;;;27.65;51.56
17362;BME280;8798;51.938;4.348;2023-06-22T11:26:43;102697.66;;;27.73;51.55
17362;BME280;8798;51.938;4.348;2023-06-22T11:29:11;102710.81;;;27.78;52.11
17362;BME280;8798;51.938;4.348;2023-06-22T11:31:50;102652.22;;;27.69;51.21
17362;BME280;8798;51.938;4.348;2023-06-22T11:34:18;102558.88;;;27.53;51.19
17362;BME280;8798;51.938;4.348;2023-06-22T11:36:46;102494.13;;;27.42;51.68
17362;BME280;8798;51.938;4.348;2023-06-22T11:39:14;102457.44;;;27.35;51.66
17362;BME280;8798;51.938;4.348;2023-06-22T11:41:42;102402.53;;;27.27;51.65
17362;BME280;8798;51.938;4.348;2023-06-22T11:44:10;102386.22;;;27.25;51.37
17362;BME280;8798;51.938;4.348;2023-06-22T11:46:38;102378.31;;;27.29;51.13
17362;BME280;8798;51.938;4.348;2023-06-22T11:49:07;102373.00;;;27.27;51.17
17362;BME280;8798;51.938;4.348;2023-06-22T11:51:35;102341.66;;;27.21;50.72
17362;BME280;8798;51.938;4.348;2023-06-22T11:54:03;102288.63;;;27.13;51.16
17362;BME280;8798;51.938;4.348;2023-06-22T11:56:33;102263.41;;;27.09;51.13
17362;BME280;8798;51.938;4.348;2023-06-22T11:59:01;102242.41;;;27.08;50.79
17362;BME280;8798;51.938;4.348;2023-06-22T12:01:29;102211.50;;;26.99;51.23
17362;BME280;8798;51.938;4.348;2023-06-22T12:03:56;102175.47;;;26.94;51.22
17362;BME280;8798;51.938;4.348;2023-06-22T12:06:26;102162.97;;;26.92;51.30
17362;BME280;8798;51.938;4.348;2023-06-22T12:08:54;102172.50;;;26.96;50.71
17362;BME280;8798;51.938;4.348;2023-06-22T12:11:23;102175.00;;;26.97;50.67
17362;BME280;8798;51.938;4.348;2023-06-22T12:13:51;102170.34;;;26.98;50.71
17362;BME280;8798;51.938;4.348;2023-06-22T12:16:19;102154.03;;;26.96;51.39
17362;BME280;8798;51.938;4.348;2023-06-22T12:18:48;102143.19;;;26.95;50.83
17362;BME280;8798;51.938;4.348;2023-06-22T12:21:16;102148.50;;;26.96;50.73
17362;BME280;8798;51.938;4.348;2023-06-22T12:23:45;102116.69;;;26.94;51.36
17362;BME280;8798;51.938;4.348;2023-06-22T12:26:13;102093.66;;;26.88;50.81
17362;BME280;8798;51.938;4.348;2023-06-22T12:28:41;102098.91;;;26.90;51.55
17362;BME280;8798;51.938;4.348;2023-06-22T12:31:09;102106.50;;;26.94;51.32
17362;BME280;8798;51.938;4.348;2023-06-22T12:33:37;102112.63;;;26.96;51.54
17362;BME280;8798;51.938;4.348;2023-06-22T12:36:05;102127.88;;;26.99;51.63
17362;BME280;8798;51.938;4.348;2023-06-22T12:38:34;102104.38;;;26.96;51.89
17362;BME280;8798;51.938;4.348;2023-06-22T12:41:03;102110.50;;;26.98;51.12
17362;BME280;8798;51.938;4.348;2023-06-22T12:43:31;102146.06;;;27.07;51.40
17362;BME280;8798;51.938;4.348;2023-06-22T12:45:59;102175.88;;;27.16;52.04
17362;BME280;8798;51.938;4.348;2023-06-22T12:48:27;102160.63;;;27.14;51.97
17362;BME280;8798;51.938;4.348;2023-06-22T12:50:55;102159.78;;;27.13;51.68
17362;BME280;8798;51.938;4.348;2023-06-22T12:53:23;102152.34;;;27.14;51.76
17362;BME280;8798;51.938;4.348;2023-06-22T12:55:53;102129.91;;;27.10;51.86
17362;BME280;8798;51.938;4.348;2023-06-22T12:58:23;102105.75;;;27.06;51.87
17362;BME280;8798;51.938;4.348;2023-06-22T13:00:51;102052.41;;;26.93;52.52
17362;BME280;8798;51.938;4.348;2023-06-22T13:03:19;102024.69;;;26.88;52.83
17362;BME280;8798;51.938;4.348;2023-06-22T13:05:47;102003.31;;;26.84;52.36
17362;BME280;8798;51.938;4.348;2023-06-22T13:08:15;101982.78;;;26.79;52.92